Flight Track Log - Related Links

Times and Time Zones

All times are in EDT time to prevent confusion due to time zone crossing. See the SWA1718 flight status page for this flight to view local times or setup timezone preferences in your user account.

Time Position Orientation Groundspeed Altitude Reporting Facility
EDT Latitude Longitude Course Direction KTS MPH feet Rate Location/Type
Fri 07:29:41 41.7833 -87.8167 255° West 185 213 2,900  Level Chicago TRACON
Fri 07:30:41 41.7667 -87.9000 255° West 204 235 3,700 1,486 Climbing Chicago TRACON
Fri 07:31:26 41.7683 -87.9433 273° West 219 252 5,500 2,887 Climbing Chicago Center
Fri 07:32:27 41.7664 -88.0367 268° West 252 290 8,800 3,344 Climbing Chicago Center
Fri 07:33:28 41.7672 -88.1556 271° West 267 307 12,300 2,754 Climbing Chicago Center
Fri 07:34:29 41.7711 -88.2778 272° West 325 374 14,400 2,410 Climbing Chicago Center
Fri 07:35:30 41.7733 -88.4067 271° West 346 398 17,200 3,024 Climbing Chicago Center
Fri 07:36:32 41.7761 -88.5400 272° West 357 411 20,600 2,780 Climbing Chicago Center
Fri 07:37:33 41.7733 -88.6744 268° West 368 423 22,900 2,164 Climbing Chicago Center
Fri 07:38:34 41.7428 -88.8058 253° West 371 427 25,000 2,016 Climbing Chicago Center
Fri 07:39:35 41.7136 -88.9397 254° West 377 434 27,000 1,918 Climbing Chicago Center
Fri 07:40:36 41.6758 -89.1047 253° West 388 447 28,900 1,902 Climbing Chicago Center
Fri 07:41:38 41.6467 -89.2431 254° West 390 449 30,900 1,707 Climbing Chicago Center
Fri 07:42:39 41.6175 -89.3803 254° West 385 443 32,400 1,328 Climbing Chicago Center
Fri 07:43:40 41.5844 -89.5206 253° West 394 453 33,600 1,230 Climbing Chicago Center
Fri 07:44:41 41.5486 -89.6711 252° West 403 464 34,900 1,024 Climbing Chicago Center
Fri 07:45:43 41.5164 -89.8136 253° West 403 464 35,700 683 Climbing Chicago Center
Fri 07:46:44 41.4933 -89.9664 259° West 417 480 36,300 1,082 Climbing Chicago Center
Fri 07:47:45 41.4731 -90.1167 260° West 414 476 37,900 829 Climbing Chicago Center
Fri 07:48:47 41.4542 -90.2622 260° West 404 465 38,000 49 Climbing Chicago Center
Fri 07:49:48 41.4339 -90.4108 260° West 409 471 38,000  Level Chicago Center
Fri 07:50:49 41.4144 -90.5600 260° West 409 471 38,000  Level Chicago Center
Fri 07:51:51 41.3869 -90.7450 259° West 424 488 38,000  Level Chicago Center
Fri 07:52:52 41.3664 -90.8944 260° West 417 480 38,000  Level Chicago Center
Fri 07:53:53 41.3447 -91.0419 259° West 411 473 38,000  Level Chicago Center
Fri 07:54:55 41.3250 -91.1869 260° West 403 464 38,000  Level Chicago Center
Fri 07:55:56 41.3042 -91.3314 259° West 407 468 38,000  Level Chicago Center
Fri 07:56:58 41.2836 -91.4769 259° West 404 465 38,000  Level Chicago Center
Fri 07:57:59 41.2617 -91.6214 259° West 402 463 38,000  Level Chicago Center
Fri 07:59:01 41.2356 -91.7942 259° West 407 468 38,000  Level Chicago Center
Fri 08:00:02 41.2147 -91.9394 259° West 406 467 38,000  Level Chicago Center
Fri 08:01:03 41.1919 -92.0875 258° West 411 473 38,000  Level Chicago Center
Fri 08:02:05 41.1689 -92.2336 258° West 411 473 38,000  Level Chicago Center
Fri 08:03:06 41.1475 -92.3808 259° West 411 473 38,000  Level Chicago Center
Fri 08:04:08 41.1244 -92.5242 258° West 404 465 38,000  Level Chicago Center
Fri 08:05:09 41.0964 -92.7000 258° West 411 473 38,000  Level Chicago Center
Fri 08:06:11 41.0742 -92.8425 258° West 403 464 38,000  Level Chicago Center
Fri 08:07:12 41.0508 -92.9856 258° West 403 464 38,000  Level Chicago Center
Fri 08:07:29 41.0469 -93.0158 260° West 403 464 38,000  Level Minneapolis Center
Fri 08:08:31 41.0200 -93.1850 258° West 399 459 38,000  Level Minneapolis Center
Fri 08:09:32 40.9967 -93.3269 258° West 397 457 38,000  Level Minneapolis Center
Fri 08:10:33 40.9722 -93.4728 258° West 406 467 38,000  Level Minneapolis Center
Fri 08:11:34 40.9486 -93.6167 258° West 405 466 38,000  Level Minneapolis Center
Fri 08:12:35 40.9242 -93.7611 257° West 407 468 38,000  Level Minneapolis Center
Fri 08:13:36 40.9008 -93.9050 258° West 405 466 38,000  Level Minneapolis Center
Fri 08:14:37 40.8747 -94.0519 257° West 410 472 38,000  Level Minneapolis Center
Fri 08:15:39 40.8511 -94.1967 258° West 409 471 38,000  Level Minneapolis Center
Fri 08:16:40 40.8169 -94.3731 256° West 412 474 38,000  Level Minneapolis Center
Fri 08:17:41 40.7942 -94.5172 258° West 408 470 38,000  Level Minneapolis Center
Fri 08:18:42 40.7703 -94.6586 257° West 407 468 38,000  Level Minneapolis Center
Fri 08:19:43 40.7444 -94.8039 257° West 406 467 38,000  Level Minneapolis Center
Fri 08:20:44 40.7192 -94.9481 257° West 404 465 38,000  Level Minneapolis Center
Fri 08:21:46 40.6936 -95.0925 257° West 403 464 38,000  Level Minneapolis Center
Fri 08:22:47 40.6664 -95.2397 256° West 407 468 38,000  Level Minneapolis Center
Fri 08:23:48 40.6392 -95.3864 256° West 411 473 38,000  Level Minneapolis Center
Fri 08:24:49 40.6083 -95.5594 257° West 406 467 38,000  Level Minneapolis Center
Fri 08:25:50 40.5814 -95.7033 256° West 403 464 38,000  Level Minneapolis Center
Fri 08:26:52 40.5553 -95.8475 257° West 405 466 38,000  Level Minneapolis Center
Fri 08:27:53 40.5275 -95.9914 256° West 404 465 38,000  Level Minneapolis Center
Fri 08:28:54 40.5014 -96.1331 256° West 400 460 38,000  Level Minneapolis Center
Fri 08:29:55 40.4739 -96.2750 256° West 400 460 38,000  Level Minneapolis Center
Fri 08:30:56 40.4469 -96.4178 256° West 401 461 38,000  Level Minneapolis Center
Fri 08:31:58 40.4189 -96.5606 256° West 403 464 38,000  Level Minneapolis Center
Fri 08:32:59 40.3914 -96.7028 256° West 402 463 38,000  Level Minneapolis Center
Fri 08:34:00 40.3633 -96.8483 256° West 407 468 38,000  Level Minneapolis Center
Fri 08:35:01 40.3342 -96.9939 255° West 412 474 38,000  Level Minneapolis Center
Fri 08:36:03 40.3044 -97.1408 255° West 415 478 38,000  Level Minneapolis Center
Fri 08:37:04 40.2753 -97.2858 255° West 413 475 38,000  Level Minneapolis Center
Fri 08:38:05 40.2411 -97.4572 255° West 416 479 38,000  Level Minneapolis Center
Fri 08:39:06 40.2111 -97.6039 255° West 416 479 38,000  Level Minneapolis Center
Fri 08:40:07 40.1814 -97.7472 255° West 410 472 38,000  Level Minneapolis Center
Fri 08:41:09 40.1522 -97.8906 255° West 409 471 38,000  Level Minneapolis Center
Fri 08:42:10 40.1231 -98.0342 255° West 407 468 38,000  Level Minneapolis Center
Fri 08:43:11 40.0928 -98.1772 255° West 407 468 38,000  Level Minneapolis Center
Fri 08:44:12 40.0619 -98.3197 254° West 407 468 38,000  Level Minneapolis Center
Fri 08:45:13 40.0314 -98.4614 254° West 405 466 38,000  Level Minneapolis Center
Fri 08:46:15 40.0019 -98.6053 255° West 406 467 38,000  Level Minneapolis Center
Fri 08:47:16 39.9708 -98.7497 254° West 409 471 38,000  Level Minneapolis Center
Fri 08:48:29 39.9392 -98.8953 254° West 411 473 38,000  Level Minneapolis Center
Fri 08:48:47 39.9194 -98.9842 254° West 418 481 38,000  Level Denver Center
Fri 08:49:48 39.8875 -99.1292 254° West 416 479 38,000  Level Denver Center
Fri 08:50:48 39.8550 -99.2772 254° West 422 486 38,000  Level Denver Center
Fri 08:51:49 39.8225 -99.4242 254° West 422 486 38,000  Level Denver Center
Fri 08:52:50 39.7894 -99.5700 254° West 422 486 38,000  Level Denver Center
Fri 08:53:51 39.7567 -99.7164 254° West 421 484 38,000  Level Denver Center
Fri 08:54:52 39.7242 -99.8625 254° West 419 482 38,000  Level Denver Center
Fri 08:55:53 39.6897 -100.0103 253° West 422 486 38,000  Level Denver Center
Fri 08:56:54 39.6522 -100.1758 254° West 424 488 38,000  Level Denver Center
Fri 08:57:55 39.6200 -100.3161 253° West 425 489 38,000  Level Denver Center
Fri 08:58:56 39.5867 -100.4592 253° West 430 495 38,000  Level Denver Center
Fri 08:59:56 39.5478 -100.6231 253° West 426 490 38,000  Level Denver Center
Fri 09:00:57 39.5158 -100.7633 254° West 425 489 38,000  Level Denver Center
Fri 09:01:58 39.4819 -100.9031 253° West 425 489 38,000  Level Denver Center
Fri 09:02:59 39.4436 -101.0667 253° West 427 491 38,000  Level Denver Center
Fri 09:04:00 39.4108 -101.2017 253° West 415 478 38,000  Level Denver Center
Fri 09:05:01 39.3786 -101.3372 253° West 413 475 38,000  Level Denver Center
Fri 09:06:01 39.3400 -101.4936 252° West 408 470 38,000  Level Denver Center
Fri 09:07:02 39.3078 -101.6269 253° West 405 466 38,000  Level Denver Center
Fri 09:08:03 39.2736 -101.7614 252° West 410 472 38,000  Level Denver Center
Fri 09:09:04 39.2353 -101.9175 252° West 410 472 38,000  Level Denver Center
Fri 09:10:05 39.2025 -102.0531 253° West 412 474 38,000  Level Denver Center
Fri 09:11:06 39.1678 -102.1867 252° West 414 476 38,000  Level Denver Center
Fri 09:12:07 39.1289 -102.3422 252° West 411 473 38,000  Level Denver Center
Fri 09:13:08 39.0956 -102.4744 252° West 408 470 38,000  Level Denver Center
Fri 09:14:09 39.0617 -102.6072 252° West 408 470 38,000  Level Denver Center
Fri 09:15:10 39.0233 -102.7550 252° West 405 466 38,000  Level Denver Center
Fri 09:16:10 38.9881 -102.8956 252° West 410 472 38,000  Level Denver Center
Fri 09:17:11 38.9517 -103.0333 251° West 405 466 38,000  Level Denver Center
Fri 09:18:12 38.9169 -103.1731 252° West 408 470 38,000  Level Denver Center
Fri 09:19:13 38.8797 -103.3119 251° West 406 467 38,000  Level Denver Center
Fri 09:20:14 38.8414 -103.4583 251° West 404 465 38,000  Level Denver Center
Fri 09:21:15 38.8067 -103.5892 251° West 407 468 38,000  Level Denver Center
Fri 09:22:16 38.7725 -103.7175 251° West 400 460 38,000  Level Denver Center
Fri 09:23:17 38.7319 -103.8681 251° West 400 460 38,000  Level Denver Center
Fri 09:24:18 38.6967 -103.9992 251° West 407 468 38,000  Level Denver Center
Fri 09:25:19 38.6597 -104.1372 251° West 406 467 38,000  Level Denver Center
Fri 09:26:20 38.6222 -104.2783 251° West 412 474 38,000  Level Denver Center
Fri 09:27:21 38.5847 -104.4169 251° West 409 471 38,000  Level Denver Center
Fri 09:28:21 38.5461 -104.5544 250° West 409 471 38,000  Level Denver Center
Fri 09:29:22 38.5078 -104.6928 251° West 407 468 38,000  Level Denver Center
Fri 09:30:23 38.4708 -104.8261 251° West 398 458 38,000  Level Denver Center
Fri 09:31:24 38.4336 -104.9592 250° West 395 455 38,000  Level Denver Center
Fri 09:32:25 38.3972 -105.0919 251° West 393 452 38,000  Level Denver Center
Fri 09:33:26 38.3589 -105.2250 250° West 396 456 38,000  Level Denver Center
Fri 09:34:27 38.3181 -105.3664 250° West 393 452 38,000  Level Denver Center
Fri 09:35:28 38.2828 -105.4906 250° West 391 450 38,000  Level Denver Center
Fri 09:36:29 38.2478 -105.6147 250° West 391 450 38,000  Level Denver Center
Fri 09:37:30 38.2058 -105.7600 250° West 394 453 38,000  Level Denver Center
Fri 09:38:31 38.1708 -105.8867 251° West 398 458 38,000  Level Denver Center
Fri 09:39:32 38.1267 -106.0325 249° West 396 456 38,000  Level Denver Center
Fri 09:40:33 38.0903 -106.1589 250° West 398 458 38,000  Level Denver Center
Fri 09:41:34 38.0514 -106.2856 249° West 401 461 38,000  Level Denver Center
Fri 09:42:35 38.0075 -106.4331 249° West 402 463 38,000  Level Denver Center
Fri 09:43:36 37.9728 -106.5575 251° West 398 458 38,000  Level Denver Center
Fri 09:44:37 37.9358 -106.6842 250° West 399 459 38,000  Level Denver Center
Fri 09:45:38 37.8897 -106.8319 248° West 403 464 38,000  Level Denver Center
Fri 09:46:39 37.8517 -106.9594 249° West 404 465 38,000  Level Denver Center
Fri 09:47:40 37.8078 -107.1053 249° West 402 463 38,000  Level Denver Center
Fri 09:48:42 37.7694 -107.2328 249° West 405 466 38,000  Level Denver Center
Fri 09:49:43 37.7306 -107.3592 249° West 404 465 38,000  Level Denver Center
Fri 09:50:44 37.6847 -107.5083 249° West 407 468 38,000  Level Denver Center
Fri 09:51:45 37.6467 -107.6356 249° West 407 468 38,000  Level Denver Center
Fri 09:52:46 37.6064 -107.7636 248° West 410 472 38,000  Level Denver Center
Fri 09:53:47 37.5597 -107.9131 249° West 410 472 38,000  Level Denver Center
Fri 09:54:48 37.5203 -108.0400 249° West 408 470 38,000  Level Denver Center
Fri 09:55:49 37.4736 -108.1875 248° West 406 467 38,000  Level Denver Center
Fri 09:56:51 37.4331 -108.3167 248° West 412 474 38,000  Level Denver Center
Fri 09:57:52 37.3925 -108.4447 248° West 413 475 38,000  Level Denver Center
Fri 09:58:53 37.3444 -108.5942 248° West 413 475 38,000  Level Denver Center
Fri 09:59:54 37.3031 -108.7219 248° West 414 476 38,000  Level Denver Center
Fri 10:00:55 37.2550 -108.8728 248° West 417 480 38,000  Level Denver Center
Fri 10:01:57 37.2142 -109.0003 248° West 413 475 38,000  Level Denver Center
Fri 10:02:58 37.1725 -109.1275 248° West 412 474 38,000  Level Denver Center
Fri 10:03:59 37.1242 -109.2761 248° West 413 475 38,000  Level Denver Center
Fri 10:05:01 37.0831 -109.4028 248° West 412 474 38,000  Level Denver Center
Fri 10:06:02 37.0350 -109.5503 248° West 411 473 38,000  Level Denver Center
Fri 10:07:03 36.9925 -109.6775 247° West 412 474 38,000  Level Denver Center
Fri 10:08:05 36.9503 -109.8025 247° West 411 473 38,000  Level Denver Center
Fri 10:09:06 36.9017 -109.9475 247° West 407 468 38,000  Level Denver Center
Fri 10:10:07 36.8606 -110.0725 248° West 406 467 38,000  Level Denver Center
Fri 10:11:09 36.8142 -110.2114 247° West 409 471 38,000  Level Denver Center
Fri 10:12:10 36.7697 -110.3408 247° West 408 470 38,000  Level Denver Center
Fri 10:13:12 36.7256 -110.4703 247° West 408 470 38,000  Level Denver Center
Fri 10:14:13 36.6806 -110.6008 247° West 409 471 38,000  Level Denver Center
Fri 10:15:15 36.6378 -110.7317 248° West 408 470 38,000  Level Denver Center
Fri 10:16:16 36.5844 -110.8894 247° West 410 472 38,000  Level Denver Center
Fri 10:17:18 36.5383 -111.0208 246° West 413 475 38,000  Level Denver Center
Fri 10:18:20 36.4911 -111.1539 246° West 418 481 38,000  Level Denver Center
Fri 10:19:21 36.4444 -111.2861 246° West 419 482 38,000  Level Denver Center
Fri 10:20:23 36.3972 -111.4186 246° West 419 482 38,000  Level Denver Center
Fri 10:21:25 36.3519 -111.5511 247° West 418 481 38,000  Level Denver Center
Fri 10:22:26 36.3053 -111.6831 246° West 417 480 38,000  Level Denver Center
Fri 10:23:28 36.2575 -111.8147 246° West 418 481 38,000  Level Denver Center
Fri 10:24:25 36.2111 -111.9450 246° West 416 479 38,000  Level Los Center
Fri 10:25:26 36.1639 -112.0750 246° West 421 484 38,000  Level Los Center
Fri 10:26:28 36.1172 -112.2058 246° West 419 482 38,000  Level Los Center
Fri 10:27:30 36.0586 -112.3678 246° West 416 479 38,000  Level Los Center
Fri 10:28:31 36.0100 -112.4983 245° Southwest 418 481 38,000  Level Los Center
Fri 10:29:33 35.9636 -112.6297 246° West 417 480 38,000  Level Los Center
Fri 10:30:35 35.9194 -112.7497 246° West 416 479 38,000  Level Los Center
Fri 10:31:36 35.8711 -112.8800 245° Southwest 421 484 38,000  Level Los Center
Fri 10:32:38 35.8142 -113.0364 246° West 422 486 38,000  Level Los Center
Fri 10:33:39 35.7658 -113.1664 245° Southwest 423 487 38,000  Level Los Center
Fri 10:34:41 35.7161 -113.2961 245° Southwest 425 489 38,000  Level Los Center
Fri 10:35:43 35.6686 -113.4272 246° West 424 488 38,000  Level Los Center
Fri 10:36:44 35.6192 -113.5575 245° Southwest 425 489 38,000  Level Los Center
Fri 10:37:46 35.5683 -113.6864 244° Southwest 424 488 38,000  Level Los Center
Fri 10:38:48 35.5047 -113.8406 243° Southwest 424 488 38,000  Level Los Center
Fri 10:39:49 35.4522 -113.9700 244° Southwest 426 490 38,000  Level Los Center
Fri 10:40:51 35.3989 -114.0978 243° Southwest 428 493 38,000  Level Los Center
Fri 10:41:53 35.3456 -114.2272 243° Southwest 428 493 38,000  Level Los Center
Fri 10:43:07 35.2808 -114.3875 244° Southwest 434 499 38,000  Level Los Center
Fri 10:44:08 35.2142 -114.5478 243° Southwest 439 505 38,000  Level Los Center
Fri 10:45:10 35.1572 -114.6819 243° Southwest 442 509 38,000  Level Los Center
Fri 10:46:12 35.1028 -114.8156 244° Southwest 440 506 38,000  Level Los Center
Fri 10:47:13 35.0469 -114.9478 243° Southwest 438 504 38,000  Level Los Center
Fri 10:48:15 34.9911 -115.0803 243° Southwest 438 504 38,000  Level Los Center
Fri 10:49:17 34.9356 -115.2117 243° Southwest 437 503 38,000 -195 Level Los Center
Fri 10:50:18 34.8806 -115.3436 243° Southwest 436 502 37,600 -683 Descending Los Center
Fri 10:51:20 34.8222 -115.4769 242° Southwest 445 512 36,600 -968 Descending Los Center
Fri 10:52:22 34.7622 -115.6211 243° Southwest 445 512 35,600 -976 Descending Los Center
Fri 10:53:23 34.7047 -115.7492 241° Southwest 435 501 34,600 -1,024 Descending Los Center
Fri 10:54:25 34.6511 -115.8772 243° Southwest 426 490 33,500 -1,016 Descending Los Center
Fri 10:55:27 34.5961 -116.0017 242° Southwest 421 484 32,500 -1,065 Descending Los Center
Fri 10:56:29 34.5328 -116.1450 242° Southwest 408 470 31,300 -1,122 Descending Los Center
Fri 10:57:30 34.4825 -116.2631 243° Southwest 397 457 30,200 -927 Descending Los Center
Fri 10:58:32 34.4303 -116.3831 242° Southwest 402 463 29,400 -871 Descending Los Center
Fri 10:59:34 34.3758 -116.5069 242° Southwest 414 476 28,400 -971 Descending Los Center
Fri 11:00:48 34.3094 -116.6536 241° Southwest 413 475 27,200 -1,368 Descending Los Center
Fri 11:01:50 34.2564 -116.7742 242° Southwest 409 471 25,300 -2,032 Descending Los Center
Fri 11:02:52 34.2042 -116.8911 242° Southwest 399 459 23,000 -2,371 Descending Los Center
Fri 11:03:54 34.1433 -117.0272 242° Southwest 386 444 20,400 -2,410 Descending Los Center
Fri 11:04:49 34.1000 -117.1333 244° Southwest 375 432 18,300 -2,231 Descending Southern TRACON
Fri 11:05:55 34.0500 -117.2500 243° Southwest 370 426 15,900 -2,100 Descending Southern TRACON
Fri 11:06:49 34.0333 -117.3667 260° West 352 405 14,100 -1,944 Descending Southern TRACON
Fri 11:07:43 34.0333 -117.4667 270° West 344 396 12,400 -1,737 Descending Southern TRACON
Fri 11:08:43 34.0333 -117.5667 270° West 319 367 10,800 -1,200 Descending Southern TRACON
Fri 11:09:43 34.0167 -117.6667 259° West 268 308 10,000 -400 Descending Southern TRACON
Fri 11:10:43 34.0000 -117.7667 259° West 258 297 10,000 -650 Level Southern TRACON
Fri 11:11:43 34.0000 -117.8500 270° West 275 316 8,700 -1,316 Descending Southern TRACON
Fri 11:12:37 33.9833 -117.9333 256° West 249 287 7,500 -1,211 Descending Southern TRACON
Fri 11:13:37 33.9833 -118.0000 270° West 212 244 6,400 -1,050 Descending Southern TRACON
Fri 11:14:37 33.9667 -118.0667 253° West 178 205 5,400 -1,000 Descending Southern TRACON
Fri 11:15:31 33.9667 -118.1167 270° West 170 196 4,500 -882 Descending Southern TRACON
Fri 11:16:19 33.9606 -118.1542 259° West 175 201 3,900 -764 Descending Los Center
Fri 11:17:21 33.9556 -118.2031 263° West 158 182 3,100 -774 Descending Los Center
Fri 11:18:23 33.9517 -118.2472 264° West 142 163 2,300 -726 Descending Los Center
Fri 11:19:25 33.9469 -118.2933 263° West 140 161 1,600 -823 Descending Los Center
Fri 11:20:27 33.9414 -118.3494 263° West 141 162 600 -677 Descending Los Center
Fri 11:21:29 33.9378 -118.3914 264° West 143 165 200 -387 Descending Los Center
Fri 11:23:00 33.9333 -118.4000 259° West  Level FlightAware

Login

Don't have an account? Register now (free) for customized features, flight alerts, and more!